Terminal Aerodrome Forecast
Issued by NWS Sterling, VA

Home | Current Version | Previous Version | Text Only | Print | Product List | Glossary On
Versions: 1 2 3 4 5 6 7 8 9 10 11 12 13 14 15 16 17 18 19 20 21 22 23 24 25 26 27
000
FTUS41 KLWX 042340
TAFBWI
TAF
KBWI 042340Z 0500/0606 08012G18KT P6SM SCT080 BKN250
     FM050300 06010KT P6SM SCT020 BKN030
     FM050600 08010KT P6SM OVC012
     FM051300 07009KT P6SM BKN020
     FM051700 09010KT P6SM SCT040=

USA.gov is the U.S. government's official web portal to all federal, state and local government web resources and services.